createdAt,value
2023-05-06T00:00:41.391Z,71.27
2023-05-06T00:04:14.082Z,70.99
2023-05-06T00:06:45.595Z,71.21
2023-05-06T00:09:33.940Z,70.92
2023-05-06T00:25:13.057Z,70.82
2023-05-06T00:31:26.947Z,72.15
2023-05-06T00:38:19.289Z,72.00
2023-05-06T00:41:58.220Z,72.22
2023-05-06T00:48:53.051Z,72.54
2023-05-06T00:51:48.368Z,72.30
2023-05-06T01:14:06.041Z,73.94
2023-05-06T01:26:04.080Z,73.86
2023-05-06T01:29:03.685Z,73.70
2023-05-06T01:32:08.212Z,73.38
2023-05-06T01:50:27.254Z,74.15
2023-05-06T01:57:48.294Z,73.64
2023-05-06T02:01:06.962Z,73.57
2023-05-06T02:07:24.709Z,73.12
2023-05-06T02:13:36.628Z,73.27
2023-05-06T02:17:17.300Z,73.44
2023-05-06T02:25:05.588Z,73.28
2023-05-06T02:28:21.656Z,72.83
2023-05-06T02:49:47.733Z,73.31
2023-05-06T02:52:28.704Z,73.05
2023-05-06T02:55:30.893Z,72.76
2023-05-06T02:58:06.523Z,72.37
2023-05-06T03:01:06.590Z,72.70
2023-05-06T03:03:52.361Z,73.40
2023-05-06T03:06:39.865Z,72.82
2023-05-06T03:09:12.733Z,73.15
2023-05-06T03:11:55.966Z,72.79
2023-05-06T03:14:37.864Z,72.78
2023-05-06T03:20:23.869Z,73.67
2023-05-06T03:23:14.597Z,73.66
2023-05-06T03:25:59.128Z,74.12
2023-05-06T03:28:45.432Z,74.31
2023-05-06T03:31:26.444Z,73.97
2023-05-06T03:34:10.553Z,73.76
2023-05-06T03:36:54.252Z,73.36
2023-05-06T03:39:51.546Z,73.77
2023-05-06T03:42:37.951Z,73.69
2023-05-06T03:45:27.647Z,73.80
2023-05-06T03:48:04.184Z,74.26
2023-05-06T03:50:39.775Z,74.19
2023-05-06T03:53:29.418Z,74.87
2023-05-06T03:56:33.739Z,74.32
2023-05-06T03:59:17.307Z,75.04
2023-05-06T04:01:55.521Z,75.11
2023-05-06T04:05:02.977Z,75.22
2023-05-06T04:10:49.402Z,75.55
2023-05-06T04:28:27.963Z,76.17
2023-05-06T05:29:13.116Z,74.17
2023-05-06T05:32:15.723Z,74.55
2023-05-06T05:35:07.940Z,74.38
2023-05-06T05:38:02.561Z,74.45
2023-05-06T05:40:55.491Z,74.72
2023-05-06T05:43:31.261Z,74.76
2023-05-06T05:46:03.574Z,73.97
2023-05-06T05:48:41.107Z,73.98
2023-05-06T05:51:24.732Z,73.81
2023-05-06T05:54:05.875Z,73.75
2023-05-06T06:11:55.620Z,72.44
2023-05-06T06:14:31.138Z,72.37
2023-05-06T06:17:05.556Z,71.96
2023-05-06T06:19:40.486Z,72.06
2023-05-06T06:22:13.073Z,71.59
2023-05-06T06:24:45.539Z,71.01
2023-05-06T06:27:39.004Z,71.19
2023-05-06T06:30:17.928Z,70.93
2023-05-06T06:32:58.656Z,70.54
2023-05-06T06:38:15.127Z,69.98
2023-05-06T06:40:44.422Z,69.87
2023-05-06T06:43:21.300Z,69.19
2023-05-06T06:45:56.486Z,69.92
2023-05-06T06:48:35.055Z,69.69
2023-05-06T06:51:09.880Z,69.43
2023-05-06T06:53:50.754Z,68.99
2023-05-06T06:56:27.326Z,69.12
2023-05-06T07:02:14.156Z,69.45
2023-05-06T07:04:46.483Z,69.28
2023-05-06T07:07:21.358Z,69.36
2023-05-06T07:09:50.621Z,69.67
2023-05-06T07:12:33.100Z,69.56
2023-05-06T07:15:07.731Z,69.40
2023-05-06T07:17:55.789Z,68.92
2023-05-06T07:39:03.580Z,68.12
2023-05-06T07:41:49.232Z,67.15
2023-05-06T07:44:24.910Z,66.59
2023-05-06T07:47:10.201Z,66.20
2023-05-06T07:49:48.267Z,67.08
2023-05-06T07:52:46.035Z,66.33
2023-05-06T07:55:23.424Z,66.40
2023-05-06T07:58:28.260Z,66.83
2023-05-06T08:01:09.850Z,65.84
2023-05-06T08:04:11.061Z,65.28
2023-05-06T08:06:42.042Z,64.43
2023-05-06T08:09:22.906Z,64.30
2023-05-06T08:15:09.888Z,63.31
2023-05-06T08:17:57.586Z,62.03
2023-05-06T08:20:47.448Z,60.09
2023-05-06T08:24:09.808Z,59.37
2023-05-06T08:26:57.737Z,57.31
2023-05-06T08:30:48.353Z,57.25
2023-05-06T08:33:33.527Z,57.00
2023-05-06T08:36:11.418Z,56.76
2023-05-06T08:38:56.285Z,56.14
2023-05-06T08:41:48.724Z,55.87
2023-05-06T08:47:43.375Z,55.30
2023-05-06T08:50:32.406Z,55.00
2023-05-06T08:57:01.844Z,54.54
2023-05-06T09:35:57.902Z,50.44
2023-05-06T09:42:52.424Z,49.89
2023-05-06T09:45:38.815Z,50.06
2023-05-06T09:48:36.814Z,49.62
2023-05-06T09:55:54.458Z,49.68
2023-05-06T09:59:15.573Z,50.13
2023-05-06T10:06:18.312Z,50.05
2023-05-06T10:08:50.889Z,50.19
2023-05-06T10:12:04.020Z,49.00
2023-05-06T10:14:56.158Z,48.52
2023-05-06T10:21:42.600Z,48.42
2023-05-06T10:22:52.084Z,48.63
2023-05-06T10:24:21.202Z,48.55
2023-05-06T10:26:56.923Z,48.84
2023-05-06T10:29:39.122Z,49.57
2023-05-06T10:32:16.524Z,48.88
2023-05-06T10:38:57.308Z,46.00
2023-05-06T10:41:50.372Z,45.86
2023-05-06T10:48:27.264Z,45.36
2023-05-06T10:51:30.331Z,44.37
2023-05-06T10:54:43.383Z,44.16
2023-05-06T10:58:14.528Z,43.80
2023-05-06T11:05:34.766Z,45.01
2023-05-06T11:12:05.125Z,46.64
2023-05-06T11:14:51.001Z,46.10
2023-05-06T11:17:46.336Z,44.41
2023-05-06T11:20:55.033Z,43.83
2023-05-06T11:24:40.213Z,42.45
2023-05-06T11:31:23.798Z,42.34
2023-05-06T11:34:32.298Z,41.38
2023-05-06T11:37:47.924Z,40.39
2023-05-06T11:40:35.415Z,41.34
2023-05-06T11:55:00.685Z,44.12
2023-05-06T12:01:36.985Z,44.56
2023-05-06T12:07:11.132Z,43.70
2023-05-06T12:10:30.707Z,43.51
2023-05-06T12:17:20.945Z,44.06
2023-05-06T12:20:16.653Z,44.19
2023-05-06T12:23:15.633Z,44.31
2023-05-06T12:26:24.961Z,44.15
2023-05-06T12:29:25.699Z,44.63
2023-05-06T12:35:32.501Z,44.76
2023-05-06T12:38:28.627Z,44.56
2023-05-06T12:41:08.168Z,44.72
2023-05-06T12:43:39.626Z,44.41
2023-05-06T12:50:13.503Z,43.59
2023-05-06T12:52:54.839Z,43.81
2023-05-06T12:55:56.701Z,44.40
2023-05-06T12:58:30.844Z,43.77
2023-05-06T13:01:05.813Z,44.08
2023-05-06T13:03:46.948Z,44.06
2023-05-06T13:06:19.500Z,44.08
2023-05-06T13:09:06.008Z,44.55
2023-05-06T13:14:40.650Z,43.85
2023-05-06T13:17:52.382Z,43.99
2023-05-06T13:20:21.129Z,43.88
2023-05-06T13:23:05.178Z,43.30
2023-05-06T13:27:16.418Z,43.04
2023-05-06T13:29:13.414Z,42.65
2023-05-06T13:42:23.330Z,42.52
2023-05-06T13:44:59.607Z,42.53
2023-05-06T13:48:23.984Z,42.39
2023-05-06T13:59:08.803Z,41.50
2023-05-06T14:20:42.941Z,40.99
2023-05-06T14:31:10.321Z,40.30
2023-05-06T14:44:07.499Z,39.70
2023-05-06T15:25:58.084Z,39.01
2023-05-06T15:34:43.052Z,39.33
2023-05-06T15:37:42.859Z,38.97
2023-05-06T15:40:23.745Z,39.28
2023-05-06T15:43:24.070Z,39.39
2023-05-06T15:46:38.662Z,39.27
2023-05-06T15:53:05.277Z,39.68
2023-05-06T16:03:14.647Z,40.09
2023-05-06T16:31:39.691Z,39.99
2023-05-06T16:35:14.477Z,39.47
2023-05-06T16:38:14.274Z,39.64
2023-05-06T16:44:33.897Z,40.40
2023-05-06T16:47:17.718Z,40.66
2023-05-06T16:50:36.283Z,40.95
2023-05-06T16:53:31.110Z,41.07
2023-05-06T18:03:46.098Z,45.25
2023-05-06T18:17:40.091Z,45.11
2023-05-06T18:20:09.246Z,45.46
2023-05-06T18:21:07.627Z,45.01
2023-05-06T18:24:16.337Z,45.30
2023-05-06T18:49:23.573Z,45.59
2023-05-06T18:56:11.437Z,46.11
2023-05-06T19:02:31.958Z,46.36
2023-05-06T19:10:15.019Z,46.24
2023-05-06T19:12:10.087Z,46.23
2023-05-06T19:15:17.404Z,46.40
2023-05-06T19:21:24.313Z,46.18
2023-05-06T19:34:07.809Z,47.75
2023-05-06T19:36:54.003Z,47.93
2023-05-06T19:46:29.846Z,48.47
2023-05-06T19:50:05.672Z,48.58
2023-05-06T19:52:38.879Z,49.07
2023-05-06T19:55:45.206Z,48.87
2023-05-06T19:58:52.520Z,49.03
2023-05-06T20:07:47.564Z,49.62
2023-05-06T20:10:36.834Z,49.52
2023-05-06T20:20:25.842Z,50.14
2023-05-06T21:15:30.815Z,53.06
2023-05-06T21:18:31.453Z,53.41
2023-05-06T21:21:15.096Z,53.24
2023-05-06T21:24:26.678Z,52.75
2023-05-06T21:27:17.072Z,52.85
2023-05-06T21:30:20.281Z,53.12
2023-05-06T21:33:05.270Z,53.78
2023-05-06T21:36:46.112Z,54.04
2023-05-06T21:41:19.828Z,54.17
